Time,TemperatureF,DewpointF,PressureIn,WindDirection,WindDirectionDegrees,WindSpeedMPH,WindSpeedGustMPH,Humidity,HourlyPrecipIn,Conditions,Clouds,dailyrainin,SoftwareType,DateUTC
2013-03-14 00:00:00,24.5,20.4,30.19,NNW,337,7.0,11.0,84,0.00,,OVC037,0.02,VWS V14.01,2013-03-14 04:00:00,
2013-03-14 00:01:00,24.5,20.4,30.19,NW,315,7.0,7.0,84,0.00,,OVC037,0.00,VWS V14.01,2013-03-14 04:01:00,
2013-03-14 00:06:00,24.6,20.5,30.19,NNW,331,6.0,10.0,84,0.00,,OVC037,0.00,VWS V14.01,2013-03-14 04:06:00,
2013-03-14 00:11:00,24.6,20.5,30.19,NNW,347,9.0,9.0,84,0.00,,OVC039,0.00,VWS V14.01,2013-03-14 04:11:00,
2013-03-14 00:16:00,24.7,20.6,30.19,NW,324,7.0,7.0,84,0.00,,OVC039,0.00,VWS V14.01,2013-03-14 04:16:00,
2013-03-14 00:21:00,24.7,20.6,30.19,North,349,4.0,6.0,84,0.00,,OVC039,0.00,VWS V14.01,2013-03-14 04:21:00,
2013-03-14 00:26:00,24.8,20.7,30.19,NNW,332,6.0,10.0,84,0.00,,OVC039,0.00,VWS V14.01,2013-03-14 04:26:00,
2013-03-14 00:32:00,24.8,20.7,30.19,NNW,335,5.0,7.0,84,0.00,,OVC039,0.00,VWS V14.01,2013-03-14 04:32:00,
2013-03-14 00:37:00,24.8,20.7,30.19,NNW,333,7.0,12.0,84,0.00,,OVC039,0.00,VWS V14.01,2013-03-14 04:37:00,
2013-03-14 00:42:00,24.8,20.9,30.19,NNW,335,9.0,12.0,85,0.00,,OVC039,0.00,VWS V14.01,2013-03-14 04:42:00,
2013-03-14 00:47:00,24.8,20.9,30.19,NNW,346,4.0,8.0,85,0.00,,OVC039,0.00,VWS V14.01,2013-03-14 04:47:00,
2013-03-14 00:52:00,24.8,20.9,30.19,NNW,348,4.0,6.0,85,0.00,,OVC039,0.00,VWS V14.01,2013-03-14 04:52:00,
2013-03-14 00:57:00,24.8,20.9,30.19,NW,309,5.0,5.0,85,0.00,,OVC039,0.00,VWS V14.01,2013-03-14 04:57:00,
2013-03-14 01:02:00,24.9,21.0,30.19,NW,319,6.0,13.0,85,0.00,,OVC039,0.00,VWS V14.01,2013-03-14 05:02:00,
2013-03-14 01:07:00,24.9,21.0,30.19,North,350,9.0,10.0,85,0.00,,,0.00,VWS V14.01,2013-03-14 05:07:00,
2013-03-14 01:12:00,24.9,21.0,30.19,NW,304,4.0,7.0,85,0.00,,,0.00,VWS V14.01,2013-03-14 05:12:00,
2013-03-14 01:17:00,24.9,21.0,30.19,NW,326,5.0,5.0,85,0.00,,,0.00,VWS V14.01,2013-03-14 05:17:00,
2013-03-14 01:22:00,24.9,21.0,30.19,WNW,293,3.0,6.0,85,0.00,,,0.00,VWS V14.01,2013-03-14 05:22:00,
2013-03-14 01:27:00,24.9,21.3,30.19,NNW,328,7.0,7.0,86,0.00,,,0.00,VWS V14.01,2013-03-14 05:27:00,
2013-03-14 01:32:00,24.9,21.3,30.19,North,350,7.0,9.0,86,0.00,,,0.00,VWS V14.01,2013-03-14 05:32:00,
2013-03-14 01:37:00,24.9,21.3,30.19,NNW,329,6.0,10.0,86,0.00,,,0.00,VWS V14.01,2013-03-14 05:37:00,
2013-03-14 01:42:00,24.9,21.3,30.19,NW,309,7.0,8.0,86,0.00,,,0.00,VWS V14.01,2013-03-14 05:42:00,
2013-03-14 01:47:00,25.0,21.4,30.19,NW,307,7.0,9.0,86,0.00,,,0.00,VWS V14.01,2013-03-14 05:47:00,
2013-03-14 01:52:00,25.0,21.4,30.19,North,350,3.0,8.0,86,0.00,,,0.00,VWS V14.01,2013-03-14 05:52:00,
2013-03-14 01:57:00,24.9,21.3,30.19,NW,317,7.0,10.0,86,0.00,,,0.00,VWS V14.01,2013-03-14 05:57:00,
2013-03-14 02:02:00,24.9,21.3,30.19,North,357,7.0,10.0,86,0.00,,,0.00,VWS V14.01,2013-03-14 06:02:00,
2013-03-14 02:07:00,24.8,20.9,30.19,NW,311,5.0,5.0,85,0.00,,,0.00,VWS V14.01,2013-03-14 06:07:00,
2013-03-14 02:12:00,24.8,20.9,30.19,NW,316,5.0,7.0,85,0.00,,,0.00,VWS V14.01,2013-03-14 06:12:00,
2013-03-14 02:17:00,24.8,20.9,30.19,NW,317,5.0,7.0,85,0.00,,,0.00,VWS V14.01,2013-03-14 06:17:00,
2013-03-14 02:22:00,24.7,20.8,30.19,WNW,301,9.0,9.0,85,0.00,,,0.00,VWS V14.01,2013-03-14 06:22:00,
2013-03-14 02:27:00,24.7,20.6,30.19,North,350,7.0,9.0,84,0.00,,,0.00,VWS V14.01,2013-03-14 06:27:00,
2013-03-14 02:32:00,24.7,20.6,30.20,NNW,341,3.0,5.0,84,0.00,,,0.00,VWS V14.01,2013-03-14 06:32:00,
2013-03-14 02:37:00,24.7,20.6,30.19,NNW,329,3.0,8.0,84,0.00,,,0.00,VWS V14.01,2013-03-14 06:37:00,
2013-03-14 02:42:00,24.6,20.2,30.19,NNW,335,7.0,9.0,83,0.00,,,0.00,VWS V14.01,2013-03-14 06:42:00,
2013-03-14 02:47:00,24.7,20.3,30.19,NW,311,3.0,4.0,83,0.00,,,0.00,VWS V14.01,2013-03-14 06:47:00,
2013-03-14 02:52:00,24.7,20.3,30.20,NW,316,3.0,7.0,83,0.00,,,0.00,VWS V14.01,2013-03-14 06:52:00,
2013-03-14 02:58:00,24.7,20.3,30.20,NNW,346,3.0,6.0,83,0.00,,,0.00,VWS V14.01,2013-03-14 06:58:00,
2013-03-14 03:03:00,24.7,20.3,30.20,NW,306,3.0,7.0,83,0.00,,,0.00,VWS V14.01,2013-03-14 07:03:00,
2013-03-14 03:08:00,24.7,20.3,30.20,NNW,344,3.0,6.0,83,0.00,,BKN041,0.00,VWS V14.01,2013-03-14 07:08:00,
2013-03-14 03:13:00,24.7,20.3,30.20,NNW,334,7.0,9.0,83,0.00,,BKN041,0.00,VWS V14.01,2013-03-14 07:13:00,
2013-03-14 03:18:00,24.8,20.4,30.20,NNW,328,4.0,6.0,83,0.00,,BKN041,0.00,VWS V14.01,2013-03-14 07:18:00,
2013-03-14 03:23:00,24.8,20.1,30.19,NNW,327,8.0,8.0,82,0.00,,BKN041,0.00,VWS V14.01,2013-03-14 07:23:00,
2013-03-14 03:28:00,24.8,20.4,30.20,North,357,6.0,7.0,83,0.00,,BKN041,0.00,VWS V14.01,2013-03-14 07:28:00,
2013-03-14 03:33:00,24.8,20.4,30.19,NW,310,2.0,7.0,83,0.00,,BKN041,0.00,VWS V14.01,2013-03-14 07:33:00,
2013-03-14 03:38:00,24.8,20.4,30.20,NW,308,5.0,6.0,83,0.00,,BKN041,0.00,VWS V14.01,2013-03-14 07:38:00,
2013-03-14 03:43:00,24.7,20.6,30.20,NNW,335,6.0,8.0,84,0.00,,BKN041,0.00,VWS V14.01,2013-03-14 07:43:00,
2013-03-14 03:48:00,24.7,20.6,30.20,NNW,334,3.0,7.0,84,0.00,,BKN041,0.00,VWS V14.01,2013-03-14 07:48:00,
2013-03-14 03:53:00,24.8,20.7,30.20,NNW,344,6.0,6.0,84,0.00,,BKN041,0.00,VWS V14.01,2013-03-14 07:53:00,
2013-03-14 03:58:00,24.8,20.7,30.20,NNW,347,5.0,8.0,84,0.00,,BKN041,0.00,VWS V14.01,2013-03-14 07:58:00,
2013-03-14 04:03:00,24.8,20.7,30.19,NW,317,2.0,4.0,84,0.00,,BKN041,0.00,VWS V14.01,2013-03-14 08:03:00,
2013-03-14 04:08:00,24.8,20.4,30.20,WNW,284,4.0,5.0,83,0.00,,OVC042,0.00,VWS V14.01,2013-03-14 08:08:00,
2013-03-14 04:13:00,24.7,20.6,30.20,NW,317,5.0,9.0,84,0.00,,OVC042,0.00,VWS V14.01,2013-03-14 08:13:00,
2013-03-14 04:18:00,24.9,20.5,30.20,NNW,344,6.0,12.0,83,0.00,,OVC042,0.00,VWS V14.01,2013-03-14 08:18:00,
2013-03-14 04:23:00,24.9,20.5,30.20,NW,315,8.0,8.0,83,0.00,,OVC042,0.00,VWS V14.01,2013-03-14 08:23:00,
2013-03-14 04:28:00,24.9,20.5,30.19,NNW,327,6.0,7.0,83,0.00,,OVC042,0.00,VWS V14.01,2013-03-14 08:28:00,
2013-03-14 04:33:00,24.8,20.7,30.19,NNW,344,5.0,9.0,84,0.00,,OVC042,0.00,VWS V14.01,2013-03-14 08:33:00,
2013-03-14 04:38:00,24.6,20.5,30.19,North,2,6.0,9.0,84,0.00,,OVC042,0.00,VWS V14.01,2013-03-14 08:38:00,
2013-03-14 04:43:00,24.4,20.0,30.19,NNW,348,3.0,5.0,83,0.00,,OVC042,0.00,VWS V14.01,2013-03-14 08:43:00,
2013-03-14 04:48:00,24.2,19.8,30.19,NNW,346,3.0,5.0,83,0.00,,OVC040,0.00,VWS V14.01,2013-03-14 08:48:00,
2013-03-14 04:53:00,24.1,19.4,30.19,NNW,344,3.0,3.0,82,0.00,,OVC040,0.00,VWS V14.01,2013-03-14 08:53:00,
2013-03-14 04:58:00,23.9,19.2,30.19,NNW,346,1.0,3.0,82,0.00,,OVC040,0.00,VWS V14.01,2013-03-14 08:58:00,
2013-03-14 05:03:00,23.7,18.7,30.19,North,7,3.0,3.0,81,0.00,,,0.00,VWS V14.01,2013-03-14 09:03:00,
2013-03-14 05:08:00,23.4,18.1,30.19,NNE,13,2.0,3.0,80,0.00,,,0.00,VWS V14.01,2013-03-14 09:08:00,
2013-03-14 05:13:00,23.0,17.5,30.19,North,7,3.0,4.0,79,0.00,,,0.00,VWS V14.01,2013-03-14 09:13:00,
2013-03-14 05:18:00,22.7,17.5,30.19,North,352,2.0,3.0,80,0.00,,,0.00,VWS V14.01,2013-03-14 09:18:00,
2013-03-14 05:23:00,22.7,17.5,30.19,NNW,348,2.0,2.0,80,0.00,,,0.00,VWS V14.01,2013-03-14 09:23:00,
2013-03-14 05:28:00,22.2,17.3,30.19,NNW,348,2.0,2.0,81,0.00,,,0.00,VWS V14.01,2013-03-14 09:28:00,
2013-03-14 05:33:00,21.8,16.9,30.19,NNW,348,2.0,2.0,81,0.00,,,0.00,VWS V14.01,2013-03-14 09:33:00,
2013-03-14 05:38:00,21.4,16.8,30.19,NNW,348,0.0,1.0,82,0.00,,,0.00,VWS V14.01,2013-03-14 09:38:00,
2013-03-14 05:43:00,21.0,16.1,30.19,NNW,347,1.0,2.0,81,0.00,,,0.00,VWS V14.01,2013-03-14 09:43:00,
2013-03-14 05:48:00,20.8,16.2,30.19,NNW,347,1.0,1.0,82,0.00,,SCT036,0.00,VWS V14.01,2013-03-14 09:48:00,
2013-03-14 05:53:00,20.7,16.1,30.19,NNW,347,1.0,1.0,82,0.00,,SCT036,0.00,VWS V14.01,2013-03-14 09:53:00,
2013-03-14 05:58:00,19.7,15.7,30.19,NNW,347,0.0,1.0,84,0.00,,SCT036,0.00,VWS V14.01,2013-03-14 09:58:00,
2013-03-14 06:03:00,19.6,15.6,30.19,NNW,347,0.0,1.0,84,0.00,,FEW027,0.00,VWS V14.01,2013-03-14 10:03:00,
2013-03-14 06:08:00,19.8,15.2,30.20,NNW,347,2.0,2.0,82,0.00,,FEW027,0.00,VWS V14.01,2013-03-14 10:08:00,
2013-03-14 06:13:00,18.6,13.8,30.20,NNW,347,2.0,2.0,81,0.00,,FEW027,0.00,VWS V14.01,2013-03-14 10:13:00,
2013-03-14 06:19:00,16.7,13.0,30.20,ENE,59,1.0,1.0,85,0.00,,FEW027,0.00,VWS V14.01,2013-03-14 10:19:00,
2013-03-14 06:24:00,16.3,13.1,30.20,ENE,59,1.0,1.0,87,0.00,,FEW027,0.00,VWS V14.01,2013-03-14 10:24:00,
2013-03-14 06:29:00,15.4,12.2,30.20,ENE,59,2.0,2.0,87,0.00,,FEW027,0.00,VWS V14.01,2013-03-14 10:29:00,
2013-03-14 06:34:00,14.2,11.1,30.20,East,80,2.0,3.0,87,0.00,,FEW027,0.00,VWS V14.01,2013-03-14 10:34:00,
2013-03-14 06:39:00,14.2,11.6,30.21,East,81,1.0,1.0,89,0.00,,FEW027,0.00,VWS V14.01,2013-03-14 10:39:00,
2013-03-14 06:44:00,14.8,12.4,30.20,East,81,1.0,2.0,90,0.00,,FEW027,0.00,VWS V14.01,2013-03-14 10:44:00,
2013-03-14 06:49:00,15.0,11.8,30.20,East,81,0.0,1.0,87,0.00,,FEW027,0.00,VWS V14.01,2013-03-14 10:49:00,
2013-03-14 06:54:00,14.5,11.3,30.21,East,82,1.0,1.0,87,0.00,,FEW027,0.00,VWS V14.01,2013-03-14 10:54:00,
2013-03-14 06:59:00,13.7,10.6,30.21,East,82,0.0,1.0,87,0.00,,FEW027,0.00,VWS V14.01,2013-03-14 10:59:00,
2013-03-14 07:04:00,13.5,10.6,30.21,East,82,0.0,1.0,88,0.00,,FEW027,0.00,VWS V14.01,2013-03-14 11:04:00,
2013-03-14 07:09:00,12.8,9.9,30.21,East,82,0.0,1.0,88,0.00,,CLR,0.00,VWS V14.01,2013-03-14 11:09:00,
2013-03-14 07:14:00,12.8,10.2,30.21,East,82,0.0,1.0,89,0.00,,CLR,0.00,VWS V14.01,2013-03-14 11:14:00,
2013-03-14 07:19:00,12.4,9.8,30.21,East,82,0.0,1.0,89,0.00,,CLR,0.00,VWS V14.01,2013-03-14 11:19:00,
2013-03-14 07:24:00,12.5,9.9,30.21,East,82,0.0,1.0,89,0.00,,CLR,0.00,VWS V14.01,2013-03-14 11:24:00,
2013-03-14 07:29:00,12.8,9.7,30.21,East,82,0.0,0.0,87,0.00,,CLR,0.00,VWS V14.01,2013-03-14 11:29:00,
2013-03-14 07:34:00,12.3,8.9,30.21,East,82,0.0,1.0,86,0.00,,CLR,0.00,VWS V14.01,2013-03-14 11:34:00,
2013-03-14 07:39:00,12.2,9.1,30.22,East,82,1.0,1.0,87,0.00,,CLR,0.00,VWS V14.01,2013-03-14 11:39:00,
2013-03-14 07:44:00,11.1,7.5,30.22,East,88,1.0,2.0,85,0.00,,CLR,0.00,VWS V14.01,2013-03-14 11:44:00,
2013-03-14 07:49:00,10.7,7.8,30.22,East,95,2.0,3.0,88,0.00,,CLR,0.00,VWS V14.01,2013-03-14 11:49:00,
2013-03-14 07:54:00,10.8,8.2,30.22,ESE,113,2.0,3.0,89,0.00,,CLR,0.00,VWS V14.01,2013-03-14 11:54:00,
2013-03-14 07:59:00,10.3,7.7,30.22,ESE,113,3.0,3.0,89,0.00,,CLR,0.00,VWS V14.01,2013-03-14 11:59:00,
2013-03-14 08:04:00,10.8,8.4,30.22,ESE,114,1.0,2.0,90,0.00,,CLR,0.00,VWS V14.01,2013-03-14 12:04:00,
2013-03-14 08:09:00,10.8,8.2,30.22,ESE,114,1.0,2.0,89,0.00,,CLR,0.00,VWS V14.01,2013-03-14 12:09:00,
2013-03-14 08:14:00,10.2,7.6,30.22,ESE,113,1.0,1.0,89,0.00,,CLR,0.00,VWS V14.01,2013-03-14 12:14:00,
2013-03-14 08:19:00,9.6,6.5,30.22,ESE,113,0.0,2.0,87,0.00,,CLR,0.00,VWS V14.01,2013-03-14 12:19:00,
2013-03-14 08:24:00,10.0,6.9,30.22,ESE,113,0.0,1.0,87,0.00,,CLR,0.00,VWS V14.01,2013-03-14 12:24:00,
2013-03-14 08:29:00,10.5,7.7,30.23,ESE,113,1.0,1.0,88,0.00,,CLR,0.00,VWS V14.01,2013-03-14 12:29:00,
2013-03-14 08:34:00,10.2,7.1,30.22,ESE,113,0.0,1.0,87,0.00,,CLR,0.00,VWS V14.01,2013-03-14 12:34:00,
2013-03-14 08:39:00,10.3,7.5,30.23,ESE,113,1.0,1.0,88,0.00,,CLR,0.00,VWS V14.01,2013-03-14 12:39:00,
2013-03-14 08:44:00,10.9,8.1,30.23,ESE,113,2.0,2.0,88,0.00,,CLR,0.00,VWS V14.01,2013-03-14 12:44:00,
2013-03-14 08:49:00,12.7,9.8,30.23,ESE,113,1.0,1.0,88,0.00,,CLR,0.00,VWS V14.01,2013-03-14 12:49:00,
2013-03-14 08:54:00,12.5,9.4,30.23,ESE,116,1.0,2.0,87,0.00,,CLR,0.00,VWS V14.01,2013-03-14 12:54:00,
2013-03-14 08:59:00,13.0,9.9,30.23,ESE,121,2.0,3.0,87,0.00,,CLR,0.00,VWS V14.01,2013-03-14 12:59:00,
2013-03-14 09:04:00,13.6,10.5,30.23,ESE,120,2.0,3.0,87,0.00,,CLR,0.00,VWS V14.01,2013-03-14 13:04:00,
2013-03-14 09:09:00,14.0,10.3,30.24,ESE,120,0.0,2.0,85,0.00,,CLR,0.00,VWS V14.01,2013-03-14 13:09:00,
2013-03-14 09:14:00,13.7,10.0,30.24,ESE,120,0.0,0.0,85,0.00,,CLR,0.00,VWS V14.01,2013-03-14 13:14:00,
2013-03-14 09:19:00,13.8,10.4,30.24,ESE,120,1.0,1.0,86,0.00,,CLR,0.00,VWS V14.01,2013-03-14 13:19:00,
2013-03-14 09:24:00,15.8,12.4,30.24,ESE,120,1.0,1.0,86,0.00,,CLR,0.00,VWS V14.01,2013-03-14 13:24:00,
2013-03-14 09:29:00,16.7,12.4,30.24,South,175,1.0,1.0,83,0.00,,CLR,0.00,VWS V14.01,2013-03-14 13:29:00,
2013-03-14 09:34:00,18.3,13.2,30.24,South,175,0.0,0.0,80,0.00,,CLR,0.00,VWS V14.01,2013-03-14 13:34:00,
2013-03-14 09:39:00,18.9,13.2,30.24,South,186,1.0,2.0,78,0.00,,CLR,0.00,VWS V14.01,2013-03-14 13:39:00,
2013-03-14 09:44:00,19.9,13.6,30.24,SSW,195,0.0,0.0,76,0.00,,CLR,0.00,VWS V14.01,2013-03-14 13:44:00,
2013-03-14 09:49:00,19.7,12.5,30.25,South,180,0.0,1.0,73,0.00,,CLR,0.00,VWS V14.01,2013-03-14 13:49:00,
2013-03-14 09:54:00,20.3,12.4,30.25,NNW,344,1.0,3.0,71,0.00,,CLR,0.00,VWS V14.01,2013-03-14 13:54:00,
2013-03-14 09:59:00,21.4,12.2,30.25,North,11,1.0,2.0,67,0.00,,CLR,0.00,VWS V14.01,2013-03-14 13:59:00,
2013-03-14 10:05:00,21.7,12.1,30.25,NNE,26,4.0,5.0,66,0.00,,CLR,0.00,VWS V14.01,2013-03-14 14:05:00,
2013-03-14 10:10:00,23.5,12.4,30.25,NNE,28,3.0,4.0,62,0.00,,CLR,0.00,VWS V14.01,2013-03-14 14:10:00,
2013-03-14 10:15:00,23.5,11.7,30.25,NE,46,1.0,2.0,60,0.00,,CLR,0.00,VWS V14.01,2013-03-14 14:15:00,
2013-03-14 10:20:00,23.8,12.7,30.25,North,7,2.0,2.0,62,0.01,,CLR,0.01,VWS V14.01,2013-03-14 14:20:00,
2013-03-14 10:25:00,23.6,12.9,30.25,NE,43,1.0,2.0,63,0.01,,CLR,0.01,VWS V14.01,2013-03-14 14:25:00,
2013-03-14 10:30:00,24.2,11.9,30.25,NNE,13,5.0,5.0,59,0.01,,CLR,0.01,VWS V14.01,2013-03-14 14:30:00,
2013-03-14 10:35:00,24.9,12.6,30.25,NNE,23,3.0,3.0,59,0.01,,CLR,0.01,VWS V14.01,2013-03-14 14:35:00,
2013-03-14 10:40:00,25.1,13.2,30.24,North,2,1.0,2.0,60,0.01,,CLR,0.01,VWS V14.01,2013-03-14 14:40:00,
2013-03-14 10:45:00,24.4,12.9,30.24,North,353,5.0,6.0,61,0.01,,CLR,0.01,VWS V14.01,2013-03-14 14:45:00,
2013-03-14 10:50:00,25.1,12.8,30.24,NNE,29,4.0,5.0,59,0.01,,CLR,0.01,VWS V14.01,2013-03-14 14:50:00,
2013-03-14 10:55:00,25.0,12.3,30.24,WNW,288,4.0,5.0,58,0.01,,CLR,0.01,VWS V14.01,2013-03-14 14:55:00,
2013-03-14 11:00:00,25.1,12.8,30.24,NW,317,4.0,6.0,59,0.01,,CLR,0.01,VWS V14.01,2013-03-14 15:00:00,
2013-03-14 11:05:00,24.9,12.2,30.24,NW,311,4.0,6.0,58,0.01,,CLR,0.01,VWS V14.01,2013-03-14 15:05:00,
2013-03-14 11:10:00,25.2,13.3,30.24,NNE,26,5.0,5.0,60,0.01,,CLR,0.01,VWS V14.01,2013-03-14 15:10:00,
2013-03-14 11:15:00,25.5,13.2,30.24,North,357,6.0,6.0,59,0.01,,CLR,0.01,VWS V14.01,2013-03-14 15:15:00,
2013-03-14 11:20:00,25.7,13.4,30.24,NW,321,8.0,9.0,59,0.01,,CLR,0.01,VWS V14.01,2013-03-14 15:20:00,
2013-03-14 11:25:00,25.8,13.9,30.24,North,350,6.0,7.0,60,0.01,,CLR,0.01,VWS V14.01,2013-03-14 15:25:00,
2013-03-14 11:30:00,25.7,13.4,30.24,WNW,299,3.0,4.0,59,0.01,,CLR,0.01,VWS V14.01,2013-03-14 15:30:00,
2013-03-14 11:35:00,25.3,13.8,30.24,North,357,2.0,2.0,61,0.00,,CLR,0.01,VWS V14.01,2013-03-14 15:35:00,
2013-03-14 11:40:00,25.8,13.9,30.23,North,357,6.0,6.0,60,0.00,,CLR,0.01,VWS V14.01,2013-03-14 15:40:00,
2013-03-14 11:45:00,25.9,13.9,30.24,WSW,247,6.0,9.0,60,0.00,,CLR,0.01,VWS V14.01,2013-03-14 15:45:00,
2013-03-14 11:50:00,25.7,13.8,30.23,NW,314,3.0,5.0,60,0.00,,CLR,0.01,VWS V14.01,2013-03-14 15:50:00,
2013-03-14 11:55:00,25.5,13.6,30.23,West,272,5.0,6.0,60,0.00,,CLR,0.01,VWS V14.01,2013-03-14 15:55:00,
2013-03-14 12:00:00,26.1,14.5,30.23,WNW,295,4.0,7.0,61,0.00,,CLR,0.01,VWS V14.01,2013-03-14 16:00:00,
2013-03-14 12:05:00,26.1,14.1,30.23,NNW,348,6.0,7.0,60,0.00,,CLR,0.01,VWS V14.01,2013-03-14 16:05:00,
2013-03-14 12:10:00,26.3,14.7,30.23,West,268,6.0,9.0,61,0.00,,CLR,0.01,VWS V14.01,2013-03-14 16:10:00,
2013-03-14 12:15:00,26.0,15.1,30.23,NNW,340,9.0,9.0,63,0.00,,CLR,0.01,VWS V14.01,2013-03-14 16:15:00,
2013-03-14 12:20:00,26.2,15.0,30.22,NW,318,6.0,8.0,62,0.00,,CLR,0.01,VWS V14.01,2013-03-14 16:20:00,
2013-03-14 12:25:00,26.3,15.4,30.22,WNW,292,4.0,6.0,63,0.00,,CLR,0.01,VWS V14.01,2013-03-14 16:25:00,
2013-03-14 12:30:00,26.4,15.5,30.22,NW,319,4.0,6.0,63,0.00,,CLR,0.01,VWS V14.01,2013-03-14 16:30:00,
2013-03-14 12:35:00,26.4,15.5,30.22,West,273,7.0,7.0,63,0.00,,CLR,0.01,VWS V14.01,2013-03-14 16:35:00,
2013-03-14 12:40:00,26.9,16.4,30.22,NW,319,5.0,7.0,64,0.00,,CLR,0.01,VWS V14.01,2013-03-14 16:40:00,
2013-03-14 12:45:00,27.2,16.3,30.22,NNW,335,8.0,9.0,63,0.01,,CLR,0.02,VWS V14.01,2013-03-14 16:45:00,
2013-03-14 12:50:00,27.2,16.6,30.22,North,7,4.0,9.0,64,0.01,,CLR,0.02,VWS V14.01,2013-03-14 16:50:00,
2013-03-14 12:55:00,27.2,17.4,30.21,West,267,4.0,6.0,66,0.01,,CLR,0.02,VWS V14.01,2013-03-14 16:55:00,
2013-03-14 13:00:00,27.4,17.5,30.21,West,281,4.0,8.0,66,0.01,,CLR,0.02,VWS V14.01,2013-03-14 17:00:00,
2013-03-14 13:05:00,27.4,17.2,30.21,NW,305,6.0,6.0,65,0.01,,CLR,0.02,VWS V14.01,2013-03-14 17:05:00,
2013-03-14 13:10:00,27.6,17.4,30.21,WNW,287,6.0,8.0,65,0.01,,CLR,0.02,VWS V14.01,2013-03-14 17:10:00,
2013-03-14 13:15:00,27.6,17.7,30.21,North,7,9.0,10.0,66,0.01,,CLR,0.02,VWS V14.01,2013-03-14 17:15:00,
2013-03-14 13:20:00,27.9,17.7,30.21,NW,325,6.0,8.0,65,0.01,,CLR,0.02,VWS V14.01,2013-03-14 17:20:00,
2013-03-14 13:25:00,28.3,18.1,30.20,NNW,333,6.0,8.0,65,0.01,,CLR,0.02,VWS V14.01,2013-03-14 17:25:00,
2013-03-14 13:30:00,28.5,18.2,30.20,WNW,282,6.0,6.0,65,0.01,,CLR,0.02,VWS V14.01,2013-03-14 17:30:00,
2013-03-14 13:35:00,28.6,18.0,30.20,NW,317,6.0,7.0,64,0.01,,CLR,0.02,VWS V14.01,2013-03-14 17:35:00,
2013-03-14 13:40:00,28.6,18.3,30.20,NW,313,6.0,12.0,65,0.01,,CLR,0.02,VWS V14.01,2013-03-14 17:40:00,
2013-03-14 13:45:00,28.9,18.6,30.20,NNW,346,7.0,12.0,65,0.01,,CLR,0.02,VWS V14.01,2013-03-14 17:45:00,
2013-03-14 13:50:00,28.7,18.1,30.20,NW,319,6.0,10.0,64,0.01,,CLR,0.02,VWS V14.01,2013-03-14 17:50:00,
2013-03-14 13:55:00,29.0,18.4,30.20,NNW,334,8.0,13.0,64,0.01,,CLR,0.02,VWS V14.01,2013-03-14 17:55:00,
2013-03-14 14:00:00,29.2,18.5,30.19,North,353,8.0,8.0,64,0.00,,CLR,0.02,VWS V14.01,2013-03-14 18:00:00,
2013-03-14 14:05:00,29.4,19.1,30.19,NNW,347,7.0,7.0,65,0.00,,CLR,0.02,VWS V14.01,2013-03-14 18:05:00,
2013-03-14 14:10:00,29.7,19.0,30.19,NNW,345,7.0,10.0,64,0.00,,CLR,0.02,VWS V14.01,2013-03-14 18:10:00,
2013-03-14 14:15:00,29.3,18.6,30.19,NNW,339,7.0,10.0,64,0.00,,CLR,0.02,VWS V14.01,2013-03-14 18:15:00,
2013-03-14 14:20:00,29.4,18.7,30.19,NNW,346,7.0,11.0,64,0.00,,CLR,0.02,VWS V14.01,2013-03-14 18:20:00,
2013-03-14 14:25:00,29.9,19.2,30.18,NNW,342,6.0,9.0,64,0.00,,CLR,0.02,VWS V14.01,2013-03-14 18:25:00,
2013-03-14 14:30:00,29.6,18.2,30.18,West,279,7.0,10.0,62,0.00,,CLR,0.02,VWS V14.01,2013-03-14 18:30:00,
2013-03-14 14:35:00,29.5,18.8,30.18,NW,306,8.0,9.0,64,0.00,,CLR,0.02,VWS V14.01,2013-03-14 18:35:00,
2013-03-14 14:40:00,29.8,19.5,30.18,West,265,3.0,9.0,65,0.00,,CLR,0.02,VWS V14.01,2013-03-14 18:40:00,
2013-03-14 14:46:00,30.4,20.1,30.18,NW,313,3.0,5.0,65,0.00,,CLR,0.02,VWS V14.01,2013-03-14 18:46:00,
2013-03-14 14:51:00,30.3,19.2,30.18,West,269,10.0,11.0,63,0.00,,CLR,0.02,VWS V14.01,2013-03-14 18:51:00,
2013-03-14 14:56:00,30.8,20.1,30.18,NW,316,4.0,5.0,64,0.00,,CLR,0.02,VWS V14.01,2013-03-14 18:56:00,
2013-03-14 15:01:00,30.9,20.5,30.18,West,265,3.0,9.0,65,0.00,,CLR,0.02,VWS V14.01,2013-03-14 19:01:00,
2013-03-14 15:06:00,31.0,20.6,30.18,WNW,288,7.0,10.0,65,0.00,,CLR,0.02,VWS V14.01,2013-03-14 19:06:00,
2013-03-14 15:11:00,31.0,19.9,30.17,NW,313,7.0,9.0,63,0.00,,CLR,0.02,VWS V14.01,2013-03-14 19:11:00,
2013-03-14 15:16:00,30.9,19.4,30.17,North,7,3.0,13.0,62,0.00,,CLR,0.02,VWS V14.01,2013-03-14 19:16:00,
2013-03-14 15:21:00,30.9,19.8,30.16,WSW,248,5.0,7.0,63,0.00,,CLR,0.02,VWS V14.01,2013-03-14 19:21:00,
2013-03-14 15:26:00,31.2,20.5,30.16,NW,317,5.0,6.0,64,0.00,,CLR,0.02,VWS V14.01,2013-03-14 19:26:00,
2013-03-14 15:31:00,31.0,19.9,30.16,West,278,8.0,10.0,63,0.00,,CLR,0.02,VWS V14.01,2013-03-14 19:31:00,
2013-03-14 15:36:00,31.1,20.4,30.16,NNW,328,6.0,13.0,64,0.00,,CLR,0.02,VWS V14.01,2013-03-14 19:36:00,
2013-03-14 15:41:00,31.5,21.1,30.16,WSW,248,12.0,14.0,65,0.00,,CLR,0.02,VWS V14.01,2013-03-14 19:41:00,
2013-03-14 15:46:00,31.2,20.8,30.15,WSW,247,12.0,13.0,65,0.00,,CLR,0.02,VWS V14.01,2013-03-14 19:46:00,
2013-03-14 15:51:00,30.4,20.1,30.16,SW,231,12.0,16.0,65,0.00,,CLR,0.02,VWS V14.01,2013-03-14 19:51:00,
2013-03-14 15:57:00,30.8,20.8,30.15,WSW,247,4.0,9.0,66,0.00,,CLR,0.02,VWS V14.01,2013-03-14 19:57:00,
2013-03-14 16:02:00,31.0,21.0,30.15,SW,223,11.0,11.0,66,0.00,,CLR,0.02,VWS V14.01,2013-03-14 20:02:00,
2013-03-14 16:07:00,31.0,20.6,30.15,West,259,5.0,7.0,65,0.00,,CLR,0.02,VWS V14.01,2013-03-14 20:07:00,
2013-03-14 16:12:00,31.4,21.0,30.15,West,268,3.0,5.0,65,0.00,,CLR,0.02,VWS V14.01,2013-03-14 20:12:00,
2013-03-14 16:17:00,31.3,20.2,30.14,WSW,254,6.0,8.0,63,0.00,,CLR,0.02,VWS V14.01,2013-03-14 20:17:00,
2013-03-14 16:22:00,31.2,20.5,30.14,WNW,300,5.0,7.0,64,0.00,,CLR,0.02,VWS V14.01,2013-03-14 20:22:00,
2013-03-14 16:27:00,31.5,19.6,30.14,NW,324,7.0,9.0,61,0.01,,CLR,0.03,VWS V14.01,2013-03-14 20:27:00,
2013-03-14 16:32:00,31.3,19.4,30.14,West,271,4.0,6.0,61,0.01,,CLR,0.03,VWS V14.01,2013-03-14 20:32:00,
2013-03-14 16:37:00,31.6,18.1,30.13,SW,230,6.0,8.0,57,0.01,,CLR,0.03,VWS V14.01,2013-03-14 20:37:00,
2013-03-14 16:42:00,31.3,16.2,30.14,NW,323,6.0,8.0,53,0.01,,CLR,0.03,VWS V14.01,2013-03-14 20:42:00,
2013-03-14 16:47:00,31.3,17.0,30.14,WNW,285,5.0,9.0,55,0.01,,CLR,0.03,VWS V14.01,2013-03-14 20:47:00,
2013-03-14 16:52:00,31.1,15.1,30.14,West,271,7.0,12.0,51,0.01,,CLR,0.03,VWS V14.01,2013-03-14 20:52:00,
2013-03-14 16:57:00,31.4,14.9,30.14,WSW,252,9.0,11.0,50,0.01,,CLR,0.03,VWS V14.01,2013-03-14 20:57:00,
2013-03-14 17:02:00,31.2,15.6,30.14,West,271,10.0,11.0,52,0.01,,CLR,0.03,VWS V14.01,2013-03-14 21:02:00,
2013-03-14 17:07:00,31.1,16.4,30.14,NW,324,4.0,7.0,54,0.01,,CLR,0.03,VWS V14.01,2013-03-14 21:07:00,
2013-03-14 17:12:00,31.0,17.6,30.13,WNW,284,9.0,12.0,57,0.01,,CLR,0.03,VWS V14.01,2013-03-14 21:12:00,
2013-03-14 17:17:00,31.0,19.1,30.14,SW,234,7.0,7.0,61,0.01,,CLR,0.03,VWS V14.01,2013-03-14 21:17:00,
2013-03-14 17:22:00,30.8,18.6,30.13,SW,227,8.0,8.0,60,0.01,,CLR,0.03,VWS V14.01,2013-03-14 21:22:00,
2013-03-14 17:28:00,30.3,19.2,30.13,West,264,7.0,9.0,63,0.01,,CLR,0.03,VWS V14.01,2013-03-14 21:28:00,
2013-03-14 17:33:00,30.6,19.9,30.14,West,275,7.0,9.0,64,0.00,,CLR,0.03,VWS V14.01,2013-03-14 21:33:00,
2013-03-14 17:38:00,30.7,20.0,30.13,SW,219,10.0,10.0,64,0.00,,CLR,0.03,VWS V14.01,2013-03-14 21:38:00,
2013-03-14 17:43:00,31.2,20.8,30.12,NW,319,4.0,11.0,65,0.00,,CLR,0.03,VWS V14.01,2013-03-14 21:43:00,
2013-03-14 17:48:00,31.1,20.7,30.12,SW,223,4.0,4.0,65,0.01,,CLR,0.04,VWS V14.01,2013-03-14 21:48:00,
2013-03-14 17:53:00,31.1,21.1,30.11,SW,234,7.0,13.0,66,0.01,,CLR,0.04,VWS V14.01,2013-03-14 21:53:00,
2013-03-14 17:58:00,31.1,21.4,30.12,WNW,303,3.0,5.0,67,0.01,,CLR,0.04,VWS V14.01,2013-03-14 21:58:00,
2013-03-14 18:03:00,31.2,21.5,30.11,WSW,241,9.0,11.0,67,0.01,,CLR,0.04,VWS V14.01,2013-03-14 22:03:00,
2013-03-14 18:08:00,30.9,21.2,30.11,West,264,10.0,10.0,67,0.01,,CLR,0.04,VWS V14.01,2013-03-14 22:08:00,
2013-03-14 18:13:00,30.8,21.5,30.10,West,277,4.0,5.0,68,0.01,,CLR,0.04,VWS V14.01,2013-03-14 22:13:00,
2013-03-14 18:18:00,30.7,21.1,30.10,West,262,4.0,7.0,67,0.01,,CLR,0.04,VWS V14.01,2013-03-14 22:18:00,
2013-03-14 18:23:00,30.6,21.3,30.10,WSW,252,8.0,12.0,68,0.01,,CLR,0.04,VWS V14.01,2013-03-14 22:23:00,
2013-03-14 18:28:00,30.7,21.1,30.10,WSW,256,9.0,10.0,67,0.01,,CLR,0.04,VWS V14.01,2013-03-14 22:28:00,
2013-03-14 18:33:00,30.5,20.9,30.10,West,261,5.0,9.0,67,0.01,,CLR,0.04,VWS V14.01,2013-03-14 22:33:00,
2013-03-14 18:38:00,30.3,21.0,30.10,West,267,1.0,4.0,68,0.01,,CLR,0.04,VWS V14.01,2013-03-14 22:38:00,
2013-03-14 18:43:00,30.3,21.4,30.10,West,271,4.0,9.0,69,0.01,,CLR,0.04,VWS V14.01,2013-03-14 22:43:00,
2013-03-14 18:48:00,30.2,21.6,30.10,West,273,8.0,10.0,70,0.01,,CLR,0.04,VWS V14.01,2013-03-14 22:48:00,
2013-03-14 18:53:00,30.0,21.8,30.10,WSW,244,5.0,7.0,71,0.01,,CLR,0.04,VWS V14.01,2013-03-14 22:53:00,
2013-03-14 18:58:00,29.8,21.9,30.09,WSW,255,5.0,8.0,72,0.01,,CLR,0.04,VWS V14.01,2013-03-14 22:58:00,
2013-03-14 19:04:00,29.7,21.8,30.09,WSW,239,7.0,7.0,72,0.00,,CLR,0.04,VWS V14.01,2013-03-14 23:04:00,
2013-03-14 19:09:00,29.6,22.0,30.09,WSW,250,3.0,4.0,73,0.00,,CLR,0.04,VWS V14.01,2013-03-14 23:09:00,
2013-03-14 19:14:00,29.4,21.8,30.08,SW,235,7.0,7.0,73,0.00,,CLR,0.04,VWS V14.01,2013-03-14 23:14:00,
2013-03-14 19:19:00,29.3,21.4,30.08,WSW,254,2.0,7.0,72,0.00,,CLR,0.04,VWS V14.01,2013-03-14 23:19:00,
2013-03-14 19:24:00,29.1,21.2,30.08,WSW,246,7.0,10.0,72,0.00,,CLR,0.04,VWS V14.01,2013-03-14 23:24:00,
2013-03-14 19:29:00,29.2,21.0,30.08,West,263,3.0,7.0,71,0.00,,CLR,0.04,VWS V14.01,2013-03-14 23:29:00,
2013-03-14 19:34:00,29.0,21.1,30.07,WSW,254,3.0,10.0,72,0.00,,CLR,0.04,VWS V14.01,2013-03-14 23:34:00,
2013-03-14 19:39:00,28.9,21.0,30.08,WSW,250,6.0,7.0,72,0.00,,CLR,0.04,VWS V14.01,2013-03-14 23:39:00,
2013-03-14 19:44:00,28.9,20.7,30.07,West,278,5.0,5.0,71,0.00,,CLR,0.04,VWS V14.01,2013-03-14 23:44:00,
2013-03-14 19:49:00,28.8,20.9,30.07,WSW,240,4.0,6.0,72,0.00,,CLR,0.04,VWS V14.01,2013-03-14 23:49:00,
2013-03-14 19:54:00,28.8,20.9,30.06,SW,217,4.0,5.0,72,0.00,,CLR,0.04,VWS V14.01,2013-03-14 23:54:00,
2013-03-14 19:59:00,28.7,20.8,30.05,WSW,244,4.0,5.0,72,0.00,,CLR,0.04,VWS V14.01,2013-03-14 23:59:00,
2013-03-14 20:04:00,28.7,20.8,30.04,WSW,241,3.0,6.0,72,0.00,,CLR,0.04,VWS V14.01,2013-03-15 00:04:00,
2013-03-14 20:09:00,28.6,21.1,30.04,SW,225,3.0,4.0,73,0.00,,CLR,0.04,VWS V14.01,2013-03-15 00:09:00,
2013-03-14 20:14:00,28.7,21.1,30.04,West,270,4.0,5.0,73,0.00,,CLR,0.04,VWS V14.01,2013-03-15 00:14:00,
2013-03-14 20:19:00,28.6,21.4,30.05,WSW,249,3.0,6.0,74,0.00,,CLR,0.04,VWS V14.01,2013-03-15 00:19:00,
2013-03-14 20:24:00,28.4,21.5,30.04,WSW,242,2.0,4.0,75,0.00,,CLR,0.04,VWS V14.01,2013-03-15 00:24:00,
2013-03-14 20:29:00,28.2,21.3,30.04,WSW,252,1.0,2.0,75,0.00,,CLR,0.04,VWS V14.01,2013-03-15 00:29:00,
2013-03-14 20:34:00,27.8,21.2,30.04,WSW,250,0.0,1.0,76,0.00,,CLR,0.04,VWS V14.01,2013-03-15 00:34:00,
2013-03-14 20:39:00,27.7,21.1,30.04,West,269,1.0,1.0,76,0.00,,CLR,0.04,VWS V14.01,2013-03-15 00:39:00,
2013-03-14 20:44:00,27.7,21.4,30.03,SW,222,3.0,3.0,77,0.00,,CLR,0.04,VWS V14.01,2013-03-15 00:44:00,
2013-03-14 20:49:00,27.9,21.6,30.03,SW,229,1.0,3.0,77,0.00,,CLR,0.04,VWS V14.01,2013-03-15 00:49:00,
2013-03-14 20:54:00,28.0,21.7,30.02,WSW,242,4.0,4.0,77,0.00,,CLR,0.04,VWS V14.01,2013-03-15 00:54:00,
2013-03-14 20:59:00,28.2,21.9,30.02,WSW,250,2.0,4.0,77,0.00,,CLR,0.04,VWS V14.01,2013-03-15 00:59:00,
2013-03-14 21:04:00,28.3,22.0,30.02,WSW,242,4.0,6.0,77,0.00,,CLR,0.04,VWS V14.01,2013-03-15 01:04:00,
2013-03-14 21:09:00,28.5,22.2,30.01,WSW,248,7.0,8.0,77,0.00,,CLR,0.04,VWS V14.01,2013-03-15 01:09:00,
2013-03-14 21:14:00,28.4,22.1,30.01,SW,225,3.0,3.0,77,0.00,,CLR,0.04,VWS V14.01,2013-03-15 01:14:00,
2013-03-14 21:19:00,28.3,22.0,30.01,WSW,245,5.0,9.0,77,0.00,,CLR,0.04,VWS V14.01,2013-03-15 01:19:00,
2013-03-14 21:24:00,28.4,22.4,30.02,WNW,298,3.0,8.0,78,0.00,,CLR,0.04,VWS V14.01,2013-03-15 01:24:00,
2013-03-14 21:29:00,28.7,22.4,30.01,SW,236,7.0,7.0,77,0.00,,CLR,0.04,VWS V14.01,2013-03-15 01:29:00,
2013-03-14 21:35:00,28.7,22.4,30.00,SW,224,3.0,5.0,77,0.00,,CLR,0.04,VWS V14.01,2013-03-15 01:35:00,
2013-03-14 21:40:00,28.9,22.6,30.00,WSW,248,4.0,6.0,77,0.00,,CLR,0.04,VWS V14.01,2013-03-15 01:40:00,
2013-03-14 21:45:00,28.8,22.5,30.00,West,269,3.0,7.0,77,0.00,,CLR,0.04,VWS V14.01,2013-03-15 01:45:00,
2013-03-14 21:50:00,28.9,22.6,30.00,West,277,7.0,7.0,77,0.00,,CLR,0.04,VWS V14.01,2013-03-15 01:50:00,
2013-03-14 21:55:00,29.2,22.3,29.99,WSW,248,5.0,7.0,75,0.00,,CLR,0.04,VWS V14.01,2013-03-15 01:55:00,
2013-03-14 22:00:00,29.4,22.5,30.00,WSW,250,2.0,5.0,75,0.00,,CLR,0.04,VWS V14.01,2013-03-15 02:00:00,
2013-03-14 22:05:00,29.5,22.6,30.00,SW,218,9.0,9.0,75,0.00,,CLR,0.04,VWS V14.01,2013-03-15 02:05:00,
2013-03-14 22:10:00,29.6,22.7,30.00,West,274,2.0,3.0,75,0.00,,OVC090,0.04,VWS V14.01,2013-03-15 02:10:00,
2013-03-14 22:15:00,29.7,22.4,30.00,West,277,2.0,4.0,74,0.00,,OVC090,0.04,VWS V14.01,2013-03-15 02:15:00,
2013-03-14 22:19:00,29.6,22.7,30.00,SW,229,2.0,4.0,75,0.00,,OVC090,0.04,VWS V14.01,2013-03-15 02:19:00,
2013-03-14 22:24:00,29.7,22.4,30.00,WSW,242,5.0,9.0,74,0.00,,OVC090,0.04,VWS V14.01,2013-03-15 02:24:00,
2013-03-14 22:30:00,29.9,22.3,30.00,SSW,213,3.0,7.0,73,0.00,,OVC090,0.04,VWS V14.01,2013-03-15 02:30:00,
2013-03-14 22:35:00,30.0,22.1,30.00,WSW,239,5.0,6.0,72,0.00,,OVC090,0.04,VWS V14.01,2013-03-15 02:35:00,
2013-03-14 22:40:00,30.1,22.2,29.99,West,276,3.0,5.0,72,0.00,,OVC090,0.04,VWS V14.01,2013-03-15 02:40:00,
2013-03-14 22:45:00,30.1,22.2,30.00,WSW,256,9.0,10.0,72,0.00,,OVC090,0.04,VWS V14.01,2013-03-15 02:45:00,
2013-03-14 22:50:00,30.2,22.3,29.99,WSW,242,6.0,11.0,72,0.00,,OVC090,0.04,VWS V14.01,2013-03-15 02:50:00,
2013-03-14 22:55:00,30.2,22.3,29.99,West,262,2.0,6.0,72,0.00,,OVC090,0.04,VWS V14.01,2013-03-15 02:55:00,
2013-03-14 23:00:00,30.3,22.4,29.99,WSW,250,6.0,6.0,72,0.00,,OVC090,0.04,VWS V14.01,2013-03-15 03:00:00,
2013-03-14 23:05:00,30.4,22.5,29.98,WSW,257,8.0,8.0,72,0.00,,OVC090,0.04,VWS V14.01,2013-03-15 03:05:00,
2013-03-14 23:10:00,30.5,22.6,29.98,WSW,238,5.0,12.0,72,0.00,,OVC085,0.04,VWS V14.01,2013-03-15 03:10:00,
2013-03-14 23:15:00,30.5,22.9,29.97,SW,225,6.0,8.0,73,0.00,,OVC085,0.04,VWS V14.01,2013-03-15 03:15:00,
2013-03-14 23:20:00,30.6,23.3,29.97,SSW,213,8.0,9.0,74,0.00,,OVC085,0.04,VWS V14.01,2013-03-15 03:20:00,
2013-03-14 23:25:00,30.7,23.4,29.97,WSW,237,4.0,7.0,74,0.00,,OVC085,0.04,VWS V14.01,2013-03-15 03:25:00,
2013-03-14 23:30:00,30.6,23.6,29.97,SW,225,5.0,6.0,75,0.00,,OVC085,0.04,VWS V14.01,2013-03-15 03:30:00,
2013-03-14 23:35:00,30.6,23.6,29.98,West,261,3.0,4.0,75,0.00,,OVC085,0.04,VWS V14.01,2013-03-15 03:35:00,
2013-03-14 23:40:00,30.7,24.0,29.98,SW,233,4.0,5.0,76,0.00,,OVC085,0.04,VWS V14.01,2013-03-15 03:40:00,
2013-03-14 23:45:00,30.9,24.2,29.97,WSW,248,2.0,4.0,76,0.00,,OVC085,0.04,VWS V14.01,2013-03-15 03:45:00,
2013-03-14 23:50:00,31.0,24.3,29.97,West,267,4.0,4.0,76,0.00,,OVC085,0.04,VWS V14.01,2013-03-15 03:50:00,
2013-03-14 23:55:00,31.3,24.6,29.97,WNW,293,7.0,10.0,76,0.00,,OVC085,0.04,VWS V14.01,2013-03-15 03:55:00,